Time;durP1;ratioP1;P1;durP2;ratioP2;P2;SDS_P1;SDS_P2;PMS_P1;PMS_P2;Temp;Humidity;BMP_temperature;BMP_pressure;BME280_temperature;BME280_humidity;BME280_pressure;Samples;Min_cycle;Max_cycle;Signal;HPM_P1;HPM_P2
2023/08/14 00:01:22;;;;;;;8.13;4.72;;;17.60;99.90;;;;;;4973656;28;20035;-78
2023/08/14 00:03:53;;;;;;;7.72;4.78;;;17.60;99.90;;;;;;4975166;28;20061;-79
2023/08/14 00:06:19;;;;;;;6.88;4.43;;;17.60;99.90;;;;;;4970090;28;20046;-78
2023/08/14 00:08:44;;;;;;;7.03;4.35;;;17.60;99.90;;;;;;4987451;28;20089;-80
2023/08/14 00:11:10;;;;;;;4.97;4.45;;;17.60;99.90;;;;;;4990651;28;20035;-79
2023/08/14 00:13:54;;;;;;;7.82;4.65;;;17.60;99.90;;;;;;4985850;28;20053;-78
2023/08/14 00:16:20;;;;;;;4.95;4.45;;;17.60;99.90;;;;;;4972264;28;20031;-78
2023/08/14 00:18:46;;;;;;;6.68;4.88;;;17.60;99.90;;;;;;4990247;28;20041;-80
2023/08/14 00:21:12;;;;;;;5.95;4.57;;;17.60;99.90;;;;;;4986689;28;20026;-80
2023/08/14 00:23:38;;;;;;;7.00;5.35;;;17.60;99.90;;;;;;4967383;28;20046;-80
2023/08/14 00:26:04;;;;;;;5.57;4.80;;;17.60;99.90;;;;;;4988884;28;20034;-80
2023/08/14 00:28:31;;;;;;;5.57;4.82;;;17.60;99.90;;;;;;4992250;28;20038;-78
2023/08/14 00:30:56;;;;;;;5.47;4.40;;;17.60;99.90;;;;;;4985841;28;20042;-80
2023/08/14 00:33:22;;;;;;;5.65;4.60;;;17.60;99.90;;;;;;4989842;28;20045;-79
2023/08/14 00:35:48;;;;;;;5.72;4.63;;;17.60;99.90;;;;;;4988725;28;20023;-79
2023/08/14 00:38:14;;;;;;;5.38;4.88;;;17.60;99.90;;;;;;4974980;28;20134;-80
2023/08/14 00:40:40;;;;;;;6.45;4.75;;;17.60;99.90;;;;;;4978644;28;20030;-79
2023/08/14 00:43:05;;;;;;;4.90;4.00;;;17.60;99.90;;;;;;4986514;28;20023;-79
2023/08/14 00:45:33;;;;;;;5.05;3.70;;;17.70;99.90;;;;;;4987845;28;20031;-79
2023/08/14 00:47:59;;;;;;;8.30;5.40;;;17.70;99.90;;;;;;4986910;28;20043;-80
2023/08/14 00:50:25;;;;;;;5.30;4.82;;;17.70;99.90;;;;;;4977413;28;20194;-79
2023/08/14 00:52:55;;;;;;;6.40;5.60;;;17.70;99.90;;;;;;4990168;28;20050;-80
2023/08/14 00:55:25;;;;;;;6.72;6.13;;;17.80;99.90;;;;;;4975474;28;20062;-79
2023/08/14 00:57:53;;;;;;;9.93;6.22;;;17.80;99.90;;;;;;4990941;28;20038;-80
2023/08/14 01:00:19;;;;;;;6.85;6.18;;;17.80;99.90;;;;;;4962996;28;20097;-79
2023/08/14 01:02:46;;;;;;;5.82;5.20;;;17.80;99.90;;;;;;4956949;28;20030;-80
2023/08/14 01:05:15;;;;;;;6.88;4.75;;;17.80;99.90;;;;;;4995694;28;20041;-80
2023/08/14 01:07:41;;;;;;;8.77;4.63;;;17.80;99.90;;;;;;4965860;28;20046;-79
2023/08/14 01:10:09;;;;;;;9.27;5.30;;;17.80;99.90;;;;;;4989300;28;20080;-79
2023/08/14 01:13:10;;;;;;;6.20;4.88;;;17.80;99.90;;;;;;4975018;28;20040;-82
2023/08/14 01:15:44;;;;;;;8.50;4.45;;;17.80;99.90;;;;;;4989392;28;20598;-79
2023/08/14 01:18:15;;;;;;;5.47;4.20;;;17.90;99.90;;;;;;4976920;28;20053;-80
2023/08/14 01:20:44;;;;;;;6.13;4.60;;;17.80;99.90;;;;;;4989519;28;20022;-83
2023/08/14 01:23:20;;;;;;;6.15;5.50;;;17.80;99.90;;;;;;4992324;28;20053;-81
2023/08/14 01:25:47;;;;;;;5.85;5.20;;;17.80;99.90;;;;;;4994465;28;20022;-81
2023/08/14 01:28:14;;;;;;;5.57;5.07;;;17.80;99.90;;;;;;4990505;28;20129;-78
2023/08/14 01:30:40;;;;;;;6.25;5.63;;;17.80;99.90;;;;;;4993070;28;20143;-80
2023/08/14 01:33:06;;;;;;;6.38;4.65;;;17.80;99.90;;;;;;4990850;28;20086;-79
2023/08/14 01:35:59;;;;;;;4.75;3.72;;;17.80;99.90;;;;;;4977179;28;20038;-80
2023/08/14 01:38:37;;;;;;;11.38;5.30;;;17.80;99.90;;;;;;4981875;28;20090;-80
2023/08/14 01:41:26;;;;;;;6.13;3.85;;;17.80;99.90;;;;;;4991866;28;20101;-79
2023/08/14 01:43:57;;;;;;;5.93;4.72;;;17.80;99.90;;;;;;4989590;28;20030;-79
2023/08/14 01:46:25;;;;;;;5.00;4.35;;;17.80;99.90;;;;;;4985984;28;20491;-80
2023/08/14 01:48:52;;;;;;;6.68;4.47;;;17.80;99.90;;;;;;4972544;28;20104;-79
2023/08/14 01:51:20;;;;;;;4.70;4.30;;;17.80;99.90;;;;;;4975429;28;20081;-82
2023/08/14 01:53:47;;;;;;;6.70;5.97;;;17.80;99.90;;;;;;4987852;28;20041;-80
2023/08/14 01:56:12;;;;;;;8.40;7.05;;;17.80;99.90;;;;;;4949834;28;20035;-80
2023/08/14 01:58:38;;;;;;;9.02;8.05;;;17.80;99.90;;;;;;4987887;28;20040;-82
2023/08/14 02:01:04;;;;;;;7.32;6.63;;;17.90;99.90;;;;;;4993122;28;20100;-81
2023/08/14 02:03:30;;;;;;;7.90;7.15;;;17.90;99.90;;;;;;4977040;28;20746;-80
2023/08/14 02:05:56;;;;;;;7.88;5.43;;;17.90;99.90;;;;;;4987963;28;20098;-81
2023/08/14 02:08:22;;;;;;;9.00;6.47;;;17.90;99.90;;;;;;4992791;28;20052;-80
2023/08/14 02:11:09;;;;;;;8.98;7.15;;;17.90;99.90;;;;;;4987518;28;20050;-81
2023/08/14 02:13:36;;;;;;;7.40;6.22;;;17.90;99.90;;;;;;4979644;28;20038;-80
2023/08/14 02:16:05;;;;;;;7.53;6.80;;;17.90;99.90;;;;;;4978549;28;20122;-80
2023/08/14 02:18:30;;;;;;;7.78;6.75;;;17.90;99.90;;;;;;4998841;28;20030;-80
2023/08/14 02:21:16;;;;;;;7.47;6.78;;;17.90;99.90;;;;;;4987893;28;20109;-80
2023/08/14 02:23:41;;;;;;;7.38;6.32;;;17.80;99.90;;;;;;4970764;28;20039;-81
2023/08/14 02:26:08;;;;;;;6.38;5.78;;;17.80;99.90;;;;;;4994303;28;20037;-80
2023/08/14 02:28:34;;;;;;;6.40;5.72;;;17.80;99.90;;;;;;4978145;28;20042;-81
2023/08/14 02:31:02;;;;;;;6.68;5.45;;;17.80;99.90;;;;;;4976401;28;20058;-80
2023/08/14 02:33:27;;;;;;;6.18;5.68;;;17.80;99.90;;;;;;4997406;28;20061;-80
2023/08/14 02:35:53;;;;;;;6.57;5.97;;;17.70;99.90;;;;;;4971806;28;20030;-80
2023/08/14 02:38:19;;;;;;;6.97;5.93;;;17.70;99.90;;;;;;4986103;28;20037;-80
2023/08/14 02:41:11;;;;;;;6.75;6.15;;;17.70;99.90;;;;;;4984599;28;20031;-80
2023/08/14 02:43:53;;;;;;;5.60;5.05;;;17.70;99.90;;;;;;4988296;28;20102;-80
2023/08/14 02:46:19;;;;;;;6.97;5.60;;;17.60;99.90;;;;;;4976127;28;20057;-79
2023/08/14 02:48:45;;;;;;;7.47;5.45;;;17.60;99.90;;;;;;4964011;28;20648;-80
2023/08/14 02:51:11;;;;;;;5.78;5.22;;;17.60;99.90;;;;;;4965322;28;20062;-79
2023/08/14 02:53:37;;;;;;;5.20;4.78;;;17.60;99.90;;;;;;4967018;28;20487;-82
2023/08/14 02:56:02;;;;;;;7.85;5.30;;;17.60;99.90;;;;;;4980990;28;20022;-80
2023/08/14 02:58:30;;;;;;;6.70;4.72;;;17.60;99.90;;;;;;4979006;28;20109;-79
2023/08/14 03:00:56;;;;;;;5.22;4.78;;;17.60;99.90;;;;;;4958896;28;20027;-80
2023/08/14 03:03:22;;;;;;;6.82;5.57;;;17.50;99.90;;;;;;4957893;28;20045;-80
2023/08/14 03:05:47;;;;;;;12.32;5.80;;;17.50;99.90;;;;;;4990058;28;20038;-79
2023/08/14 03:08:13;;;;;;;5.40;4.80;;;17.60;99.90;;;;;;4993211;28;20096;-81
2023/08/14 03:10:39;;;;;;;5.68;5.13;;;17.50;99.90;;;;;;4986110;28;20073;-80
2023/08/14 03:13:05;;;;;;;5.82;5.13;;;17.50;99.90;;;;;;4994237;28;20034;-81
2023/08/14 03:15:30;;;;;;;8.57;5.07;;;17.50;99.90;;;;;;4989120;28;20045;-80
2023/08/14 03:17:56;;;;;;;5.50;5.00;;;17.50;99.90;;;;;;4978391;28;20042;-80
2023/08/14 03:20:22;;;;;;;5.60;4.93;;;17.50;99.90;;;;;;4972575;28;20034;-77
2023/08/14 03:22:48;;;;;;;5.68;5.15;;;17.50;99.90;;;;;;4987895;28;20037;-78
2023/08/14 03:25:14;;;;;;;6.97;5.57;;;17.50;99.90;;;;;;4988041;28;20066;-82
2023/08/14 03:27:40;;;;;;;5.82;5.15;;;17.50;99.90;;;;;;4974055;28;20038;-81
2023/08/14 03:30:06;;;;;;;5.57;4.85;;;17.50;99.90;;;;;;4972604;28;20514;-80
2023/08/14 03:32:32;;;;;;;9.73;6.10;;;17.50;99.90;;;;;;4957331;28;20034;-80
2023/08/14 03:34:59;;;;;;;8.48;5.95;;;17.50;99.90;;;;;;4978773;28;20034;-82
2023/08/14 03:37:25;;;;;;;6.75;5.60;;;17.50;99.90;;;;;;4974929;28;20030;-81
2023/08/14 03:39:52;;;;;;;9.52;6.38;;;17.50;99.90;;;;;;4985640;28;20395;-80
2023/08/14 03:42:19;;;;;;;11.10;6.85;;;17.50;99.90;;;;;;4983800;28;20033;-78
2023/08/14 03:44:44;;;;;;;7.47;6.78;;;17.50;99.90;;;;;;4969264;28;20125;-78
2023/08/14 03:47:10;;;;;;;10.70;7.05;;;17.60;99.90;;;;;;4975934;28;20117;-79
2023/08/14 03:49:36;;;;;;;7.10;6.40;;;17.50;99.90;;;;;;4944084;28;20038;-81
2023/08/14 03:52:02;;;;;;;8.25;5.25;;;17.50;99.90;;;;;;4980944;28;20125;-80
2023/08/14 03:54:28;;;;;;;6.88;5.38;;;17.60;99.90;;;;;;4974415;28;20129;-80
2023/08/14 03:56:54;;;;;;;4.32;3.90;;;17.60;99.90;;;;;;4992934;28;20026;-80
2023/08/14 03:59:19;;;;;;;5.00;4.50;;;17.60;99.90;;;;;;4948542;28;20093;-81
2023/08/14 04:01:45;;;;;;;7.60;5.47;;;17.60;99.90;;;;;;4987257;28;20121;-78
2023/08/14 04:04:11;;;;;;;8.18;6.50;;;17.60;99.90;;;;;;4987593;28;20616;-81
2023/08/14 04:06:37;;;;;;;7.55;6.72;;;17.50;99.90;;;;;;4985267;28;20046;-80
2023/08/14 04:09:04;;;;;;;8.48;7.50;;;17.60;99.90;;;;;;4981626;28;20057;-80
2023/08/14 04:11:30;;;;;;;7.47;6.10;;;17.60;99.90;;;;;;4982355;28;20034;-76
2023/08/14 04:13:56;;;;;;;6.55;5.95;;;17.70;99.90;;;;;;4968114;28;20038;-79
2023/08/14 04:16:22;;;;;;;6.85;5.13;;;17.70;99.90;;;;;;4977936;28;20035;-79
2023/08/14 04:18:48;;;;;;;7.30;3.72;;;17.70;99.90;;;;;;4985576;28;20037;-77
2023/08/14 04:21:13;;;;;;;4.63;4.22;;;17.70;99.90;;;;;;4990996;28;20035;-78
2023/08/14 04:23:39;;;;;;;6.28;3.45;;;17.70;99.90;;;;;;4979558;28;20057;-79
2023/08/14 04:26:05;;;;;;;6.20;3.42;;;17.60;99.90;;;;;;4996175;28;20019;-80
2023/08/14 04:28:31;;;;;;;12.25;5.57;;;17.60;99.90;;;;;;4979291;28;20103;-78
2023/08/14 04:30:56;;;;;;;10.77;8.88;;;17.60;99.90;;;;;;4975114;28;20022;-79
2023/08/14 04:33:22;;;;;;;11.45;10.25;;;17.60;99.90;;;;;;4976566;28;20037;-80
2023/08/14 04:35:48;;;;;;;8.93;8.10;;;17.60;99.90;;;;;;4976294;28;20068;-80
2023/08/14 04:38:14;;;;;;;7.53;6.55;;;17.70;99.90;;;;;;4984169;28;20057;-82
2023/08/14 04:40:44;;;;;;;7.30;5.63;;;17.70;99.90;;;;;;4992839;28;20546;-81
2023/08/14 04:43:10;;;;;;;8.13;5.13;;;17.80;99.90;;;;;;4992460;28;20090;-80
2023/08/14 04:45:36;;;;;;;9.13;4.50;;;17.80;99.90;;;;;;4978895;28;20031;-79
2023/08/14 04:48:02;;;;;;;5.90;3.63;;;17.80;99.90;;;;;;4977004;28;20063;-81
2023/08/14 04:50:29;;;;;;;5.78;4.07;;;17.80;99.90;;;;;;4981363;28;20038;-80
2023/08/14 04:52:55;;;;;;;6.28;3.88;;;17.80;99.90;;;;;;4968585;28;20035;-80
2023/08/14 04:55:23;;;;;;;7.47;3.42;;;17.90;99.90;;;;;;4980918;28;20061;-79
2023/08/14 04:57:50;;;;;;;3.00;2.80;;;17.90;99.90;;;;;;4967511;28;20115;-80
2023/08/14 05:00:16;;;;;;;6.13;3.60;;;18.00;99.90;;;;;;4976454;28;20027;-81
2023/08/14 05:02:43;;;;;;;6.35;3.90;;;18.10;99.90;;;;;;4971574;28;20038;-80
2023/08/14 05:05:08;;;;;;;6.20;4.43;;;18.10;99.90;;;;;;4977407;28;20057;-77
2023/08/14 05:07:34;;;;;;;3.63;3.30;;;18.20;99.90;;;;;;4975689;28;20166;-81
2023/08/14 05:10:00;;;;;;;7.30;4.00;;;18.30;99.90;;;;;;4980036;28;20048;-81
2023/08/14 05:12:26;;;;;;;5.10;3.72;;;18.30;99.90;;;;;;4975802;28;20082;-81
2023/08/14 05:14:52;;;;;;;4.97;4.47;;;18.30;99.90;;;;;;4981289;28;20034;-78
2023/08/14 05:17:18;;;;;;;6.00;5.13;;;18.40;99.90;;;;;;5000280;28;20033;-79
2023/08/14 05:19:45;;;;;;;6.00;5.40;;;18.40;99.90;;;;;;4978950;28;20473;-77
2023/08/14 05:22:10;;;;;;;5.07;4.68;;;18.50;99.90;;;;;;4977445;28;20093;-81
2023/08/14 05:24:36;;;;;;;5.55;5.05;;;18.40;99.90;;;;;;4992263;28;20062;-80
2023/08/14 05:27:02;;;;;;;6.47;5.88;;;18.40;99.90;;;;;;4969570;28;20042;-80
2023/08/14 05:29:28;;;;;;;10.40;8.20;;;18.50;99.90;;;;;;4994615;28;20538;-79
2023/08/14 05:31:53;;;;;;;9.70;8.77;;;18.40;99.90;;;;;;4996649;28;20121;-79
2023/08/14 05:34:19;;;;;;;10.73;9.63;;;18.50;99.90;;;;;;4987200;28;20031;-80
2023/08/14 05:36:45;;;;;;;10.70;9.50;;;18.60;99.90;;;;;;4987820;28;20089;-79
2023/08/14 05:39:10;;;;;;;11.35;9.20;;;18.60;99.90;;;;;;4987576;28;20066;-81
2023/08/14 05:41:36;;;;;;;9.60;8.60;;;18.70;99.90;;;;;;4976600;28;20030;-82
2023/08/14 05:44:02;;;;;;;9.85;8.80;;;18.70;99.90;;;;;;4997777;28;20070;-80
2023/08/14 05:46:28;;;;;;;8.40;7.65;;;18.80;99.90;;;;;;4993957;28;20122;-80
2023/08/14 05:48:54;;;;;;;9.75;8.10;;;18.80;99.90;;;;;;4979622;28;20090;-79
2023/08/14 05:51:19;;;;;;;9.20;8.40;;;18.80;99.90;;;;;;4976558;28;20064;-77
2023/08/14 05:53:45;;;;;;;8.63;7.65;;;18.90;99.90;;;;;;4986490;28;20042;-80
2023/08/14 05:56:11;;;;;;;7.10;6.40;;;18.90;99.90;;;;;;4993478;28;20109;-80
2023/08/14 05:58:36;;;;;;;8.85;7.78;;;18.90;99.90;;;;;;4989361;28;20038;-80
2023/08/14 06:01:02;;;;;;;9.55;8.27;;;18.90;99.90;;;;;;4988429;28;20435;-78
2023/08/14 06:03:28;;;;;;;9.40;8.23;;;18.80;99.90;;;;;;4976089;28;20573;-80
2023/08/14 06:05:54;;;;;;;10.85;8.95;;;18.80;99.90;;;;;;4965675;28;20038;-80
2023/08/14 06:08:20;;;;;;;9.30;7.60;;;18.80;99.90;;;;;;4961291;28;20035;-80
2023/08/14 06:10:45;;;;;;;10.50;8.32;;;18.90;99.90;;;;;;4990797;28;20027;-79
2023/08/14 06:13:11;;;;;;;7.55;6.85;;;18.90;99.90;;;;;;4990772;28;20100;-81
2023/08/14 06:15:37;;;;;;;7.07;6.47;;;18.90;99.90;;;;;;4991379;28;20035;-81
2023/08/14 06:18:03;;;;;;;6.90;6.30;;;18.90;99.90;;;;;;4992745;28;20038;-81
2023/08/14 06:20:29;;;;;;;7.25;6.57;;;18.90;99.90;;;;;;4976532;28;21402;-81
2023/08/14 06:22:55;;;;;;;6.82;6.22;;;18.90;99.90;;;;;;4993267;28;20026;-79
2023/08/14 06:25:21;;;;;;;5.95;5.45;;;19.00;99.90;;;;;;4996737;28;20038;-77
2023/08/14 06:27:47;;;;;;;7.38;6.70;;;19.00;99.90;;;;;;4996842;28;20113;-80
2023/08/14 06:30:14;;;;;;;7.30;6.60;;;19.00;99.90;;;;;;4974388;28;20058;-82
2023/08/14 06:32:40;;;;;;;6.75;6.05;;;19.00;99.90;;;;;;4992790;28;20098;-81
2023/08/14 06:35:06;;;;;;;7.72;6.97;;;19.10;99.90;;;;;;4975862;28;20058;-81
2023/08/14 06:37:33;;;;;;;9.23;8.02;;;19.00;99.90;;;;;;4993232;28;20030;-81
2023/08/14 06:39:58;;;;;;;8.48;7.30;;;19.10;99.90;;;;;;4994025;28;20026;-80
2023/08/14 06:42:25;;;;;;;10.32;9.23;;;19.10;99.90;;;;;;4971489;28;20170;-79
2023/08/14 06:44:50;;;;;;;9.55;8.55;;;19.20;99.90;;;;;;4991466;28;20046;-81
2023/08/14 06:47:16;;;;;;;10.02;8.73;;;19.20;99.90;;;;;;4989668;28;20026;-81
2023/08/14 06:49:42;;;;;;;8.75;7.85;;;19.30;99.90;;;;;;4971374;28;20038;-81
2023/08/14 06:52:08;;;;;;;9.75;8.13;;;19.40;99.90;;;;;;4993544;28;20039;-81
2023/08/14 06:54:33;;;;;;;9.63;8.18;;;19.50;99.90;;;;;;4981333;28;20035;-80
2023/08/14 06:57:01;;;;;;;9.45;8.55;;;19.50;99.90;;;;;;4996172;28;20122;-81
2023/08/14 06:59:27;;;;;;;9.35;8.35;;;19.60;99.90;;;;;;4993880;28;20030;-81
2023/08/14 07:01:52;;;;;;;8.20;7.40;;;19.70;99.90;;;;;;4991775;28;20026;-79
2023/08/14 07:04:19;;;;;;;8.93;7.75;;;19.80;99.90;;;;;;4993223;28;20455;-82
2023/08/14 07:06:45;;;;;;;8.30;7.28;;;19.90;99.90;;;;;;4990824;28;20462;-82
2023/08/14 07:09:11;;;;;;;8.45;7.50;;;19.90;99.90;;;;;;4992579;28;20035;-81
2023/08/14 07:11:38;;;;;;;8.18;7.28;;;20.00;99.90;;;;;;4990455;28;20030;-80
2023/08/14 07:14:05;;;;;;;8.00;7.30;;;20.00;99.90;;;;;;4993299;28;20551;-81
2023/08/14 07:16:30;;;;;;;7.68;6.90;;;20.00;99.90;;;;;;4960469;28;20038;-81
2023/08/14 07:18:56;;;;;;;10.35;6.97;;;20.10;99.90;;;;;;4995881;28;20086;-81
2023/08/14 07:21:22;;;;;;;7.35;6.55;;;20.10;99.90;;;;;;4991705;28;20030;-80
2023/08/14 07:23:47;;;;;;;7.82;7.05;;;20.20;99.90;;;;;;4989530;28;20065;-81
2023/08/14 07:26:13;;;;;;;9.88;7.50;;;20.30;99.90;;;;;;4993527;28;20503;-79
2023/08/14 07:28:40;;;;;;;7.97;6.80;;;20.50;99.90;;;;;;4988325;28;20029;-82
2023/08/14 07:31:06;;;;;;;8.10;6.72;;;20.80;99.90;;;;;;4988262;28;20161;-79
2023/08/14 07:33:33;;;;;;;7.30;6.65;;;21.30;99.90;;;;;;4995517;28;20038;-78
2023/08/14 07:35:59;;;;;;;9.23;6.05;;;21.70;99.90;;;;;;4979450;28;20034;-80
2023/08/14 07:38:25;;;;;;;7.65;6.10;;;22.00;99.90;;;;;;4994471;28;20043;-81
2023/08/14 07:40:52;;;;;;;9.13;6.43;;;22.20;99.90;;;;;;4989348;28;20058;-79
2023/08/14 07:43:18;;;;;;;6.35;5.70;;;22.50;99.90;;;;;;4987331;28;20054;-79
2023/08/14 07:45:43;;;;;;;7.55;6.05;;;22.70;99.90;;;;;;4992324;28;20077;-80
2023/08/14 07:48:10;;;;;;;7.20;6.25;;;22.70;99.90;;;;;;4989964;28;20041;-83
2023/08/14 07:50:36;;;;;;;11.15;5.82;;;22.90;99.90;;;;;;4987821;28;20511;-77
2023/08/14 07:53:02;;;;;;;9.25;6.00;;;23.10;99.90;;;;;;4983159;28;20061;-81
2023/08/14 07:55:27;;;;;;;8.38;5.95;;;23.00;99.90;;;;;;4986713;28;20039;-84
2023/08/14 07:57:53;;;;;;;8.23;5.97;;;23.00;99.90;;;;;;4987076;28;20052;-80
2023/08/14 08:00:20;;;;;;;7.07;6.38;;;22.90;99.90;;;;;;4987179;28;20034;-81
2023/08/14 08:02:46;;;;;;;5.78;5.18;;;22.90;99.90;;;;;;4987881;28;20066;-81
2023/08/14 08:05:12;;;;;;;8.10;5.25;;;22.90;99.90;;;;;;4976277;28;20046;-81
2023/08/14 08:07:37;;;;;;;5.90;5.40;;;22.80;99.90;;;;;;4996112;28;20039;-80
2023/08/14 08:10:03;;;;;;;7.57;5.70;;;22.80;99.90;;;;;;4995941;28;20081;-79
2023/08/14 08:12:29;;;;;;;6.38;5.88;;;22.60;99.90;;;;;;4991723;28;20039;-78
2023/08/14 08:14:55;;;;;;;9.25;5.55;;;22.60;99.90;;;;;;4992673;28;20078;-79
2023/08/14 08:17:21;;;;;;;7.03;5.72;;;22.80;99.90;;;;;;4973766;28;20027;-78
2023/08/14 08:19:47;;;;;;;8.45;5.90;;;23.00;99.90;;;;;;4993061;28;20030;-79
2023/08/14 08:22:13;;;;;;;6.80;5.78;;;23.20;99.90;;;;;;4994065;28;20038;-81
2023/08/14 08:24:39;;;;;;;6.50;5.90;;;23.20;99.90;;;;;;4990424;28;20719;-79
2023/08/14 08:27:05;;;;;;;7.10;5.53;;;23.40;99.90;;;;;;4997413;28;20085;-79
2023/08/14 08:29:30;;;;;;;9.63;6.20;;;23.60;99.90;;;;;;4989625;28;20046;-82
2023/08/14 08:31:56;;;;;;;6.30;5.40;;;23.80;99.90;;;;;;4990602;28;20045;-79
2023/08/14 08:34:22;;;;;;;6.20;5.47;;;24.00;99.90;;;;;;4980481;28;20069;-80
2023/08/14 08:36:48;;;;;;;7.45;4.85;;;24.00;99.90;;;;;;4977859;28;20535;-80
2023/08/14 08:39:14;;;;;;;6.38;5.25;;;24.20;99.90;;;;;;4988978;28;20376;-81
2023/08/14 08:41:44;;;;;;;6.18;4.82;;;24.00;99.90;;;;;;4974864;28;20031;-79
2023/08/14 08:44:20;;;;;;;6.00;5.38;;;24.00;99.90;;;;;;4979920;28;20057;-80
2023/08/14 08:46:53;;;;;;;6.43;5.35;;;23.90;99.90;;;;;;4983122;28;20035;-80
2023/08/14 08:49:19;;;;;;;8.40;5.90;;;23.80;99.90;;;;;;4985839;28;20038;-80
2023/08/14 08:51:45;;;;;;;8.40;5.45;;;23.80;99.90;;;;;;4993733;28;20034;-80
2023/08/14 08:54:15;;;;;;;8.07;5.72;;;23.70;99.90;;;;;;4998003;28;20109;-79
2023/08/14 08:56:42;;;;;;;6.78;5.32;;;23.80;99.90;;;;;;4973754;28;20039;-79
2023/08/14 08:59:14;;;;;;;8.85;5.93;;;23.70;99.90;;;;;;4992629;28;20027;-79
2023/08/14 09:01:41;;;;;;;5.70;5.13;;;23.80;99.90;;;;;;4998298;28;20045;-80
2023/08/14 09:04:07;;;;;;;5.05;4.50;;;23.90;99.90;;;;;;4981745;28;20094;-79
2023/08/14 09:06:33;;;;;;;7.82;5.78;;;24.00;99.90;;;;;;4996218;28;20030;-79
2023/08/14 09:08:59;;;;;;;7.45;5.25;;;24.10;99.90;;;;;;4993775;28;20065;-80
2023/08/14 09:11:25;;;;;;;6.50;5.90;;;24.20;99.90;;;;;;4994632;28;20023;-79
2023/08/14 09:13:51;;;;;;;6.15;5.65;;;24.20;99.90;;;;;;4997152;28;20046;-79
2023/08/14 09:16:17;;;;;;;6.05;5.38;;;24.30;99.90;;;;;;4996794;28;20031;-79
2023/08/14 09:18:43;;;;;;;5.90;5.32;;;24.30;99.90;;;;;;4999225;28;20035;-79
2023/08/14 09:21:14;;;;;;;5.70;5.10;;;24.40;99.90;;;;;;4978853;28;20062;-80
2023/08/14 09:23:40;;;;;;;7.28;5.60;;;24.40;99.90;;;;;;4999516;28;20034;-79
2023/08/14 09:26:06;;;;;;;7.97;6.07;;;24.50;99.90;;;;;;4991376;28;20027;-81
2023/08/14 09:28:33;;;;;;;5.47;4.82;;;24.50;99.90;;;;;;4988871;28;20030;-79
2023/08/14 09:31:12;;;;;;;8.50;5.45;;;24.60;99.90;;;;;;4988778;28;20454;-79
2023/08/14 09:33:40;;;;;;;5.93;4.80;;;24.50;99.90;;;;;;4982067;28;20034;-81
2023/08/14 09:36:06;;;;;;;6.68;4.90;;;24.60;99.90;;;;;;4986209;28;20030;-77
2023/08/14 09:38:32;;;;;;;5.00;4.55;;;24.60;99.90;;;;;;4987584;28;20403;-79
2023/08/14 09:40:59;;;;;;;4.88;3.80;;;24.70;99.90;;;;;;4993662;28;20033;-78
2023/08/14 09:43:26;;;;;;;5.35;4.32;;;24.70;99.90;;;;;;4995967;28;20133;-79
2023/08/14 09:45:56;;;;;;;4.97;4.30;;;24.80;99.90;;;;;;4996914;28;20042;-79
2023/08/14 09:48:23;;;;;;;4.80;4.40;;;24.80;99.90;;;;;;4990997;28;20069;-78
2023/08/14 09:50:50;;;;;;;5.00;4.50;;;24.90;99.90;;;;;;4997258;28;20026;-78
2023/08/14 09:53:16;;;;;;;7.60;3.75;;;25.00;99.90;;;;;;4980308;28;20046;-78
2023/08/14 09:55:43;;;;;;;4.40;4.00;;;25.10;99.90;;;;;;4994329;28;20114;-80
2023/08/14 09:58:09;;;;;;;5.18;4.32;;;25.20;99.90;;;;;;4996165;28;20141;-78
2023/08/14 10:00:37;;;;;;;4.95;4.25;;;25.30;99.90;;;;;;4995513;28;20089;-78
2023/08/14 10:03:06;;;;;;;6.97;5.10;;;25.30;99.90;;;;;;5002553;28;20102;-80
2023/08/14 10:05:33;;;;;;;7.82;4.75;;;25.40;99.90;;;;;;4997140;28;20035;-78
2023/08/14 10:08:00;;;;;;;6.32;5.15;;;25.40;99.90;;;;;;4993687;28;20047;-78
2023/08/14 10:10:31;;;;;;;6.03;5.20;;;25.40;99.90;;;;;;4996315;28;20854;-78
2023/08/14 10:13:04;;;;;;;5.57;4.30;;;25.30;99.90;;;;;;5000963;28;20127;-80
2023/08/14 10:15:37;;;;;;;4.28;3.85;;;25.50;99.90;;;;;;4996787;28;20035;-77
2023/08/14 10:18:16;;;;;;;4.47;3.70;;;25.70;99.90;;;;;;4991759;28;20061;-78
2023/08/14 10:20:44;;;;;;;5.55;4.20;;;25.70;99.90;;;;;;4995591;28;20026;-77
2023/08/14 10:23:12;;;;;;;5.47;3.63;;;25.80;99.90;;;;;;4999185;28;20041;-78
2023/08/14 10:25:39;;;;;;;5.30;3.85;;;25.90;99.90;;;;;;4991281;28;20053;-77
2023/08/14 10:28:09;;;;;;;5.45;4.50;;;25.90;99.90;;;;;;4988807;28;20098;-76
2023/08/14 10:30:35;;;;;;;4.25;3.88;;;25.90;99.90;;;;;;4987419;28;20046;-80
2023/08/14 10:33:02;;;;;;;6.55;4.65;;;25.80;99.90;;;;;;4990672;28;20089;-80
2023/08/14 10:35:28;;;;;;;6.32;4.80;;;25.70;99.90;;;;;;4986523;28;20038;-81
2023/08/14 10:37:55;;;;;;;4.20;3.90;;;25.80;99.90;;;;;;4995066;28;20216;-79
2023/08/14 10:40:24;;;;;;;5.00;4.50;;;25.90;99.90;;;;;;4997742;28;20090;-78
2023/08/14 10:42:55;;;;;;;4.75;3.88;;;25.80;99.90;;;;;;4998327;28;20138;-78
2023/08/14 10:45:26;;;;;;;5.57;5.00;;;25.80;99.90;;;;;;4995159;28;20042;-78
2023/08/14 10:47:57;;;;;;;4.75;3.97;;;25.90;99.90;;;;;;4993602;28;20035;-78
2023/08/14 10:50:25;;;;;;;4.97;4.57;;;26.00;99.90;;;;;;4993766;28;20057;-77
2023/08/14 10:52:52;;;;;;;5.28;3.85;;;26.10;99.90;;;;;;5001281;28;20046;-76
2023/08/14 10:55:22;;;;;;;4.28;3.55;;;26.20;99.90;;;;;;4995379;28;20041;-79
2023/08/14 10:57:48;;;;;;;5.07;3.78;;;26.20;99.90;;;;;;4991750;28;20034;-79
2023/08/14 11:00:23;;;;;;;4.10;3.72;;;26.30;99.90;;;;;;4989211;28;20019;-79
2023/08/14 11:02:51;;;;;;;5.72;4.50;;;26.40;99.90;;;;;;4995562;28;20122;-79
2023/08/14 11:05:17;;;;;;;6.97;3.60;;;26.40;99.90;;;;;;4990506;28;20089;-79
2023/08/14 11:07:57;;;;;;;5.72;3.60;;;26.40;99.90;;;;;;4989653;28;20022;-78
2023/08/14 11:10:25;;;;;;;5.53;4.15;;;26.40;99.90;;;;;;4991636;28;20503;-77
2023/08/14 11:12:51;;;;;;;4.35;3.53;;;26.40;99.90;;;;;;4995006;28;20154;-78
2023/08/14 11:15:19;;;;;;;3.75;3.45;;;26.40;99.90;;;;;;4991874;28;20092;-79
2023/08/14 11:17:46;;;;;;;4.43;3.97;;;26.60;99.90;;;;;;4996820;28;20030;-78
2023/08/14 11:20:13;;;;;;;3.50;3.20;;;26.60;99.90;;;;;;4994308;28;20038;-79
2023/08/14 11:22:47;;;;;;;6.32;3.50;;;26.70;99.90;;;;;;4994563;28;20087;-77
2023/08/14 11:25:15;;;;;;;3.88;3.58;;;26.80;99.90;;;;;;4996570;28;20493;-78
2023/08/14 11:27:47;;;;;;;4.18;3.75;;;26.70;99.90;;;;;;4991023;28;20038;-79
2023/08/14 11:30:13;;;;;;;5.28;3.45;;;26.80;99.90;;;;;;4996575;28;20031;-79
2023/08/14 11:32:39;;;;;;;4.15;3.10;;;26.80;99.90;;;;;;4998217;28;20069;-79
2023/08/14 11:35:06;;;;;;;4.15;3.38;;;26.90;99.90;;;;;;4990835;28;20045;-78
2023/08/14 11:37:32;;;;;;;4.93;3.58;;;26.90;99.90;;;;;;4991868;28;20022;-77
2023/08/14 11:40:04;;;;;;;2.97;2.55;;;27.00;99.90;;;;;;4986443;28;20533;-79
2023/08/14 11:42:38;;;;;;;2.60;2.17;;;27.10;99.90;;;;;;4989278;28;20514;-79
2023/08/14 11:45:05;;;;;;;3.20;2.15;;;27.20;99.90;;;;;;4980028;28;20068;-78
2023/08/14 11:47:50;;;;;;;3.75;2.80;;;27.30;99.90;;;;;;4994420;28;20061;-78
2023/08/14 11:50:17;;;;;;;3.30;2.83;;;27.40;99.90;;;;;;4991705;28;20058;-78
2023/08/14 11:52:44;;;;;;;4.45;2.60;;;27.50;99.90;;;;;;4990800;28;20134;-79
2023/08/14 11:55:11;;;;;;;5.25;2.40;;;27.60;99.90;;;;;;4985852;28;20194;-78
2023/08/14 11:57:38;;;;;;;3.92;2.88;;;27.60;99.90;;;;;;4986368;28;20035;-77
2023/08/14 12:00:10;;;;;;;2.65;2.38;;;27.60;99.90;;;;;;4985154;28;20031;-79
2023/08/14 12:02:40;;;;;;;3.50;3.20;;;27.70;99.90;;;;;;4994108;28;20348;-78
2023/08/14 12:05:07;;;;;;;2.85;2.55;;;27.80;99.90;;;;;;4989218;28;20035;-80
2023/08/14 12:07:33;;;;;;;3.20;2.50;;;27.80;99.90;;;;;;4987314;28;20042;-78
2023/08/14 12:10:00;;;;;;;2.50;2.30;;;27.90;99.90;;;;;;4986592;28;20084;-78
2023/08/14 12:12:26;;;;;;;2.97;2.60;;;27.80;99.90;;;;;;4990651;28;20039;-79
2023/08/14 12:14:53;;;;;;;3.05;2.42;;;27.90;99.90;;;;;;4985347;28;20181;-79
2023/08/14 12:17:19;;;;;;;2.70;2.33;;;28.00;99.90;;;;;;4988605;28;20514;-78
2023/08/14 12:19:53;;;;;;;8.45;2.40;;;28.10;99.90;;;;;;4993134;28;20105;-76
2023/08/14 12:22:22;;;;;;;1.80;1.70;;;28.30;99.90;;;;;;4982762;28;20137;-78
2023/08/14 12:24:49;;;;;;;1.52;1.40;;;28.30;99.90;;;;;;4985165;28;20042;-78
2023/08/14 12:27:18;;;;;;;2.03;1.60;;;28.50;99.90;;;;;;4987765;28;20042;-80
2023/08/14 12:29:44;;;;;;;3.67;1.85;;;28.50;99.90;;;;;;4984512;28;20073;-79
2023/08/14 12:32:10;;;;;;;2.65;2.20;;;28.50;99.90;;;;;;4981702;28;20046;-79
2023/08/14 12:34:36;;;;;;;2.10;1.80;;;28.60;99.90;;;;;;4990564;28;20042;-78
2023/08/14 12:37:05;;;;;;;1.75;1.65;;;28.70;99.90;;;;;;4986708;28;20039;-78
2023/08/14 12:39:31;;;;;;;2.10;1.90;;;28.80;99.90;;;;;;4991522;28;20050;-80
2023/08/14 12:41:58;;;;;;;2.53;2.10;;;28.80;99.30;;;;;;4991047;28;20286;-78
2023/08/14 12:44:24;;;;;;;2.80;1.98;;;28.80;99.90;;;;;;4976265;28;20035;-79
2023/08/14 12:46:50;;;;;;;3.15;2.20;;;28.70;97.70;;;;;;4989747;28;20042;-79